Time;durP1;ratioP1;P1;durP2;ratioP2;P2;SDS_P1;SDS_P2;PMS_P1;PMS_P2;Temp;Humidity;BMP_temperature;BMP_pressure;BME280_temperature;BME280_humidity;BME280_pressure;Samples;Min_cycle;Max_cycle;Signal;HPM_P1;HPM_P2
2023/08/09 00:00:49;;;;;;;2.92;1.92;;;;;;;;;;6302395;22;20007;-85
2023/08/09 00:03:16;;;;;;;2.58;1.85;;;;;;;;;;6301008;22;20011;-84
2023/08/09 00:05:42;;;;;;;3.53;2.03;;;;;;;;;;6302109;22;20012;-85
2023/08/09 00:08:08;;;;;;;2.80;1.95;;;;;;;;;;6301425;22;20019;-85
2023/08/09 00:10:34;;;;;;;4.10;1.90;;;;;;;;;;6299793;22;20018;-84
2023/08/09 00:13:00;;;;;;;2.33;1.70;;;;;;;;;;6300094;22;20015;-84
2023/08/09 00:15:26;;;;;;;4.70;2.25;;;;;;;;;;6301616;22;20015;-84
2023/08/09 00:17:52;;;;;;;4.47;1.75;;;;;;;;;;6274314;22;20019;-85
2023/08/09 00:20:20;;;;;;;2.63;1.75;;;;;;;;;;6273093;22;20049;-84
2023/08/09 00:22:46;;;;;;;5.22;2.55;;;;;;;;;;6274272;22;20011;-85
2023/08/09 00:25:12;;;;;;;4.32;2.33;;;;;;;;;;6300045;22;20054;-84
2023/08/09 00:27:39;;;;;;;5.18;2.45;;;;;;;;;;6301760;22;20026;-84
2023/08/09 00:30:05;;;;;;;3.10;2.75;;;;;;;;;;6301503;22;20011;-85
2023/08/09 00:32:32;;;;;;;4.45;2.35;;;;;;;;;;6301717;22;20027;-84
2023/08/09 00:34:58;;;;;;;3.60;2.00;;;;;;;;;;6301313;22;20108;-84
2023/08/09 00:37:24;;;;;;;4.60;2.40;;;;;;;;;;6301171;22;20015;-85
2023/08/09 00:39:51;;;;;;;4.28;2.70;;;;;;;;;;6300271;22;20019;-84
2023/08/09 00:42:17;;;;;;;4.55;2.97;;;;;;;;;;6300359;22;20019;-84
2023/08/09 00:44:43;;;;;;;5.63;2.78;;;;;;;;;;6274638;22;20065;-84
2023/08/09 00:47:09;;;;;;;5.80;3.25;;;;;;;;;;6300719;22;20695;-84
2023/08/09 00:49:36;;;;;;;4.85;3.30;;;;;;;;;;6301384;22;20336;-85
2023/08/09 00:52:03;;;;;;;7.15;3.83;;;;;;;;;;6301374;22;20011;-84
2023/08/09 00:54:30;;;;;;;6.03;3.70;;;;;;;;;;6300927;22;20026;-84
2023/08/09 00:56:56;;;;;;;5.80;3.40;;;;;;;;;;6300948;22;20027;-85
2023/08/09 00:59:22;;;;;;;5.57;3.35;;;;;;;;;;6273721;22;20586;-84
2023/08/09 01:01:48;;;;;;;7.68;3.15;;;;;;;;;;6274274;22;20104;-84
2023/08/09 01:04:14;;;;;;;4.55;3.20;;;;;;;;;;6273368;22;20019;-84
2023/08/09 01:06:41;;;;;;;9.48;4.40;;;;;;;;;;6301642;22;20022;-84
2023/08/09 01:09:15;;;;;;;5.88;4.00;;;;;;;;;;6302254;22;20022;-85
2023/08/09 01:11:53;;;;;;;6.90;3.80;;;;;;;;;;6303982;22;20007;-85
2023/08/09 01:14:22;;;;;;;8.38;3.92;;;;;;;;;;6302983;22;20073;-85
2023/08/09 01:16:49;;;;;;;5.15;3.30;;;;;;;;;;6303754;22;20018;-85
2023/08/09 01:19:35;;;;;;;4.72;3.40;;;;;;;;;;6303000;22;20015;-84
2023/08/09 01:22:07;;;;;;;5.82;3.83;;;;;;;;;;6275836;22;20079;-85
2023/08/09 01:24:34;;;;;;;6.72;4.10;;;;;;;;;;6304687;22;20014;-84
2023/08/09 01:27:00;;;;;;;6.07;3.75;;;;;;;;;;6303895;22;20084;-85
2023/08/09 01:29:26;;;;;;;6.28;4.10;;;;;;;;;;6303426;22;20011;-85
2023/08/09 01:31:52;;;;;;;5.90;3.92;;;;;;;;;;6303890;22;20086;-85
2023/08/09 01:34:19;;;;;;;5.57;3.75;;;;;;;;;;6302729;22;20023;-85
2023/08/09 01:36:46;;;;;;;6.18;3.67;;;;;;;;;;6303434;22;20011;-85
2023/08/09 01:39:15;;;;;;;7.32;4.00;;;;;;;;;;6302766;22;20086;-84
2023/08/09 01:41:42;;;;;;;5.32;3.65;;;;;;;;;;6275880;22;20050;-85
2023/08/09 01:44:11;;;;;;;6.88;4.45;;;;;;;;;;6303171;22;20218;-85
2023/08/09 01:46:37;;;;;;;5.70;3.80;;;;;;;;;;6303664;22;20439;-85
2023/08/09 01:49:13;;;;;;;8.18;4.45;;;;;;;;;;6301300;22;20102;-85
2023/08/09 01:51:39;;;;;;;8.50;5.07;;;;;;;;;;6302632;22;20016;-85
2023/08/09 01:54:06;;;;;;;6.90;5.00;;;;;;;;;;6275970;22;20387;-84
2023/08/09 01:56:32;;;;;;;7.22;4.53;;;;;;;;;;6274656;22;20452;-85
2023/08/09 01:58:58;;;;;;;6.30;4.47;;;;;;;;;;6275195;22;20041;-85
2023/08/09 02:01:25;;;;;;;5.85;4.18;;;;;;;;;;6275711;22;20019;-85
2023/08/09 02:03:51;;;;;;;6.40;3.92;;;;;;;;;;6303161;22;20015;-85
2023/08/09 02:06:17;;;;;;;5.53;3.63;;;;;;;;;;6301826;22;20065;-85
2023/08/09 02:08:44;;;;;;;6.72;4.30;;;;;;;;;;6302838;22;20023;-85
2023/08/09 02:11:10;;;;;;;6.60;4.25;;;;;;;;;;6274684;22;20494;-84
2023/08/09 02:13:38;;;;;;;6.00;4.07;;;;;;;;;;6275404;22;20456;-85
2023/08/09 02:16:05;;;;;;;5.63;4.15;;;;;;;;;;6302480;22;20030;-84
2023/08/09 02:18:31;;;;;;;5.68;3.97;;;;;;;;;;6302210;22;20092;-85
2023/08/09 02:20:59;;;;;;;7.75;4.47;;;;;;;;;;6301939;22;20022;-85
2023/08/09 02:23:25;;;;;;;7.05;3.97;;;;;;;;;;6303719;22;20012;-85
2023/08/09 02:25:53;;;;;;;6.13;4.03;;;;;;;;;;6275156;22;20399;-85
2023/08/09 02:28:19;;;;;;;5.30;3.60;;;;;;;;;;6303566;22;20011;-85
2023/08/09 02:30:45;;;;;;;5.00;3.92;;;;;;;;;;6302970;22;20015;-85
2023/08/09 02:33:11;;;;;;;5.53;3.70;;;;;;;;;;6301826;22;20436;-85
2023/08/09 02:36:07;;;;;;;4.60;3.53;;;;;;;;;;6301722;22;20007;-85
2023/08/09 02:38:33;;;;;;;5.95;4.25;;;;;;;;;;6270910;22;20015;-85
2023/08/09 02:41:00;;;;;;;5.07;3.65;;;;;;;;;;6274759;22;20023;-85
2023/08/09 02:43:26;;;;;;;6.07;4.13;;;;;;;;;;6303147;22;20442;-84
2023/08/09 02:45:53;;;;;;;6.43;4.72;;;;;;;;;;6302751;22;20440;-85
2023/08/09 02:48:19;;;;;;;5.85;4.05;;;;;;;;;;6300714;22;20019;-85
2023/08/09 02:50:45;;;;;;;5.93;3.50;;;;;;;;;;6300570;22;20012;-85
2023/08/09 02:53:12;;;;;;;5.18;3.63;;;;;;;;;;6274699;22;20016;-85
2023/08/09 02:55:38;;;;;;;6.03;3.97;;;;;;;;;;6303462;22;20016;-85
2023/08/09 02:58:05;;;;;;;4.97;3.45;;;;;;;;;;6275332;22;20023;-85
2023/08/09 03:00:34;;;;;;;5.50;4.45;;;;;;;;;;6300652;22;20011;-85
2023/08/09 03:03:01;;;;;;;6.20;4.05;;;;;;;;;;6302336;22;20015;-85
2023/08/09 03:05:30;;;;;;;8.20;4.50;;;;;;;;;;6274765;22;20039;-85
2023/08/09 03:07:56;;;;;;;6.10;4.47;;;;;;;;;;6299915;22;20045;-85
2023/08/09 03:10:22;;;;;;;6.40;4.00;;;;;;;;;;6302848;22;20066;-85
2023/08/09 03:12:48;;;;;;;8.00;4.72;;;;;;;;;;6303051;22;20332;-84
2023/08/09 03:15:15;;;;;;;6.78;4.63;;;;;;;;;;6274439;22;20023;-85
2023/08/09 03:17:41;;;;;;;7.65;5.07;;;;;;;;;;6301337;22;20046;-85
2023/08/09 03:20:13;;;;;;;7.95;5.22;;;;;;;;;;6274842;22;20043;-85
2023/08/09 03:22:39;;;;;;;6.35;4.70;;;;;;;;;;6275082;22;20015;-85
2023/08/09 03:25:06;;;;;;;6.57;4.25;;;;;;;;;;6274719;22;20012;-85
2023/08/09 03:27:32;;;;;;;5.95;4.53;;;;;;;;;;6274825;22;20077;-85
2023/08/09 03:29:58;;;;;;;6.82;5.03;;;;;;;;;;6302727;22;20011;-85
2023/08/09 03:32:24;;;;;;;6.47;4.88;;;;;;;;;;6272866;22;20015;-85
2023/08/09 03:34:50;;;;;;;7.32;5.03;;;;;;;;;;6301920;22;20011;-85
2023/08/09 03:37:16;;;;;;;7.00;4.57;;;;;;;;;;6274515;22;20030;-84
2023/08/09 03:39:42;;;;;;;6.50;4.35;;;;;;;;;;6301922;22;20030;-84
2023/08/09 03:42:08;;;;;;;6.88;4.85;;;;;;;;;;6301696;22;20011;-85
2023/08/09 03:44:34;;;;;;;6.68;4.35;;;;;;;;;;6302469;22;20086;-84
2023/08/09 03:47:00;;;;;;;6.03;4.72;;;;;;;;;;6274087;22;20046;-84
2023/08/09 03:49:26;;;;;;;6.80;4.93;;;;;;;;;;6302365;22;20021;-84
2023/08/09 03:51:52;;;;;;;5.95;4.15;;;;;;;;;;6302013;22;20026;-85
2023/08/09 03:54:18;;;;;;;6.63;4.43;;;;;;;;;;6273992;22;20056;-85
2023/08/09 03:56:44;;;;;;;6.45;5.15;;;;;;;;;;6302587;22;20082;-85
2023/08/09 03:59:10;;;;;;;8.80;4.50;;;;;;;;;;6300860;22;20043;-85
2023/08/09 04:01:36;;;;;;;5.43;4.18;;;;;;;;;;6273426;22;20081;-85
2023/08/09 04:04:03;;;;;;;6.32;4.03;;;;;;;;;;6273366;22;20019;-85
2023/08/09 04:06:29;;;;;;;5.80;3.83;;;;;;;;;;6302152;22;20020;-84
2023/08/09 04:08:55;;;;;;;5.90;3.72;;;;;;;;;;6300835;22;20011;-84
2023/08/09 04:11:21;;;;;;;5.32;3.75;;;;;;;;;;6274957;22;20015;-85
2023/08/09 04:13:47;;;;;;;5.22;4.05;;;;;;;;;;6302371;22;20044;-85
2023/08/09 04:16:13;;;;;;;5.13;3.63;;;;;;;;;;6299633;22;20022;-85
2023/08/09 04:18:39;;;;;;;6.65;4.47;;;;;;;;;;6302083;22;20310;-85
2023/08/09 04:21:06;;;;;;;7.68;4.57;;;;;;;;;;6300869;22;20007;-85
2023/08/09 04:23:32;;;;;;;7.28;4.75;;;;;;;;;;6302251;22;20016;-85
2023/08/09 04:26:00;;;;;;;5.90;3.90;;;;;;;;;;6273287;22;20019;-84
2023/08/09 04:28:27;;;;;;;6.85;3.92;;;;;;;;;;6301695;22;20018;-85
2023/08/09 04:30:53;;;;;;;6.07;4.70;;;;;;;;;;6273096;22;20046;-85
2023/08/09 04:33:19;;;;;;;5.30;4.38;;;;;;;;;;6301513;22;20011;-84
2023/08/09 04:35:45;;;;;;;6.13;4.75;;;;;;;;;;6302420;22;20015;-85
2023/08/09 04:38:11;;;;;;;7.03;4.72;;;;;;;;;;6300146;22;20058;-86
2023/08/09 04:40:37;;;;;;;6.13;4.38;;;;;;;;;;6299303;22;20019;-86
2023/08/09 04:43:03;;;;;;;6.85;4.90;;;;;;;;;;6302716;22;20015;-88
2023/08/09 04:45:30;;;;;;;8.10;5.30;;;;;;;;;;6276950;22;20071;-87
2023/08/09 04:47:57;;;;;;;6.80;4.50;;;;;;;;;;6305466;22;20058;-87
2023/08/09 04:50:23;;;;;;;6.25;4.35;;;;;;;;;;6252085;22;20050;-86
2023/08/09 04:52:50;;;;;;;6.88;4.85;;;;;;;;;;6275821;22;20113;-87
2023/08/09 04:55:16;;;;;;;6.88;4.40;;;;;;;;;;6251289;22;20019;-93
2023/08/09 04:57:43;;;;;;;7.20;5.20;;;;;;;;;;6276768;22;20047;-88
2023/08/09 05:00:13;;;;;;;6.05;4.88;;;;;;;;;;6303082;22;20421;-91
2023/08/09 05:02:39;;;;;;;6.65;4.90;;;;;;;;;;6277504;22;20077;-88
2023/08/09 05:05:08;;;;;;;6.68;5.03;;;;;;;;;;6304525;22;20011;-93
2023/08/09 05:07:35;;;;;;;6.13;4.18;;;;;;;;;;6277005;22;20026;-91
2023/08/09 05:10:01;;;;;;;6.50;4.65;;;;;;;;;;6251299;22;20019;-92
2023/08/09 05:12:27;;;;;;;6.88;4.35;;;;;;;;;;6305447;22;20015;-93
2023/08/09 05:14:53;;;;;;;6.55;4.65;;;;;;;;;;6304512;22;20311;-88
2023/08/09 05:17:19;;;;;;;6.30;4.28;;;;;;;;;;6305067;22;20433;-91
2023/08/09 05:19:46;;;;;;;6.43;4.70;;;;;;;;;;6303963;22;20086;-88
2023/08/09 05:22:12;;;;;;;7.15;5.35;;;;;;;;;;6303733;22;20050;-89
2023/08/09 05:24:38;;;;;;;6.25;4.60;;;;;;;;;;6278066;22;20342;-92
2023/08/09 05:27:04;;;;;;;5.30;4.20;;;;;;;;;;6276581;22;20046;-92
2023/08/09 05:29:30;;;;;;;5.25;3.70;;;;;;;;;;6276308;22;20026;-90
2023/08/09 05:31:56;;;;;;;5.35;3.78;;;;;;;;;;6303935;22;20015;-90
2023/08/09 05:34:22;;;;;;;6.00;4.70;;;;;;;;;;6277531;22;20343;-91
2023/08/09 05:36:48;;;;;;;4.55;3.53;;;;;;;;;;6277509;22;20112;-91
2023/08/09 05:39:14;;;;;;;5.32;4.18;;;;;;;;;;6304303;22;20082;-93
2023/08/09 05:41:40;;;;;;;5.78;4.05;;;;;;;;;;6252241;22;20011;-90
2023/08/09 05:44:06;;;;;;;6.05;4.47;;;;;;;;;;6305814;22;20007;-89
2023/08/09 05:46:32;;;;;;;5.63;4.45;;;;;;;;;;6274485;22;20094;-86
2023/08/09 05:48:58;;;;;;;6.65;4.22;;;;;;;;;;6302234;22;20026;-87
2023/08/09 05:51:25;;;;;;;5.15;4.05;;;;;;;;;;6301327;22;20026;-86
2023/08/09 05:53:51;;;;;;;5.82;4.55;;;;;;;;;;6303460;22;20011;-86
2023/08/09 05:56:17;;;;;;;4.88;3.88;;;;;;;;;;6302551;22;20011;-86
2023/08/09 05:58:43;;;;;;;5.10;4.10;;;;;;;;;;6302484;22;20033;-86
2023/08/09 06:01:10;;;;;;;5.13;3.72;;;;;;;;;;6302851;22;20015;-86
2023/08/09 06:03:39;;;;;;;4.43;3.38;;;;;;;;;;6301436;22;20046;-87
2023/08/09 06:06:06;;;;;;;5.60;3.97;;;;;;;;;;6302394;22;20022;-86
2023/08/09 06:08:33;;;;;;;4.22;3.60;;;;;;;;;;6299370;22;20019;-86
2023/08/09 06:10:59;;;;;;;4.63;3.70;;;;;;;;;;6273300;22;20043;-85
2023/08/09 06:13:25;;;;;;;3.85;3.42;;;;;;;;;;6303378;22;20012;-91
2023/08/09 06:15:51;;;;;;;4.28;3.42;;;;;;;;;;6277156;22;20090;-92
2023/08/09 06:18:17;;;;;;;4.88;3.60;;;;;;;;;;6303129;22;20395;-94
2023/08/09 06:20:43;;;;;;;4.60;3.25;;;;;;;;;;6303964;22;20007;-86
2023/08/09 06:23:10;;;;;;;4.90;3.50;;;;;;;;;;6302766;22;20019;-88
2023/08/09 06:25:36;;;;;;;4.43;3.60;;;;;;;;;;6278000;22;20022;-92
2023/08/09 06:28:02;;;;;;;4.57;3.05;;;;;;;;;;6302851;22;20019;-91
2023/08/09 06:30:28;;;;;;;6.68;3.88;;;;;;;;;;6304312;22;20051;-87
2023/08/09 06:32:54;;;;;;;3.65;3.35;;;;;;;;;;6303118;22;20039;-87
2023/08/09 06:35:20;;;;;;;4.25;2.80;;;;;;;;;;6303174;22;20007;-87
2023/08/09 06:37:48;;;;;;;4.20;3.22;;;;;;;;;;6276317;22;20137;-88
2023/08/09 06:40:15;;;;;;;5.35;3.25;;;;;;;;;;6303113;22;20275;-88
2023/08/09 06:42:42;;;;;;;3.53;3.15;;;;;;;;;;6303743;22;20051;-87
2023/08/09 06:45:08;;;;;;;4.90;2.92;;;;;;;;;;6302658;22;20042;-88
2023/08/09 06:47:34;;;;;;;4.78;3.15;;;;;;;;;;6304723;22;20309;-87
2023/08/09 06:50:06;;;;;;;3.22;2.90;;;;;;;;;;6303080;22;20011;-84
2023/08/09 06:52:33;;;;;;;4.15;3.00;;;;;;;;;;6302986;22;20085;-85
2023/08/09 06:54:59;;;;;;;2.85;2.58;;;;;;;;;;6301910;22;20007;-84
2023/08/09 06:57:25;;;;;;;2.92;2.65;;;;;;;;;;6276033;22;20016;-85
2023/08/09 06:59:53;;;;;;;4.22;2.83;;;;;;;;;;6276595;22;20023;-84
2023/08/09 07:02:20;;;;;;;3.55;2.78;;;;;;;;;;6302992;22;20065;-84
2023/08/09 07:04:46;;;;;;;3.33;2.38;;;;;;;;;;6276608;22;20387;-83
2023/08/09 07:07:12;;;;;;;2.55;1.95;;;;;;;;;;6303018;22;20031;-85
2023/08/09 07:09:38;;;;;;;3.10;2.50;;;;;;;;;;6302995;22;20019;-91
2023/08/09 07:12:04;;;;;;;2.80;2.42;;;;;;;;;;6274460;22;20385;-90
2023/08/09 07:14:30;;;;;;;2.75;2.13;;;;;;;;;;6303268;22;20061;-89
2023/08/09 07:16:56;;;;;;;2.83;2.10;;;;;;;;;;6274326;22;20065;-91
2023/08/09 07:19:22;;;;;;;4.00;2.75;;;;;;;;;;6275261;22;20120;-88
2023/08/09 07:21:48;;;;;;;6.47;2.45;;;;;;;;;;6275974;22;20011;-88
2023/08/09 07:24:14;;;;;;;2.33;1.90;;;;;;;;;;6275061;22;20019;-90
2023/08/09 07:26:40;;;;;;;2.67;2.25;;;;;;;;;;6304000;22;20314;-88
2023/08/09 07:29:07;;;;;;;2.63;1.83;;;;;;;;;;6275312;22;20050;-89
2023/08/09 07:31:33;;;;;;;3.30;1.70;;;;;;;;;;6274760;22;20065;-89
2023/08/09 07:33:59;;;;;;;3.50;1.80;;;;;;;;;;6302827;22;20015;-88
2023/08/09 07:36:25;;;;;;;2.05;1.85;;;;;;;;;;6276210;22;20017;-88
2023/08/09 07:38:51;;;;;;;3.38;2.42;;;;;;;;;;6274417;22;20034;-88
2023/08/09 07:41:17;;;;;;;2.28;2.05;;;;;;;;;;6274832;22;20011;-88
2023/08/09 07:43:44;;;;;;;2.03;1.50;;;;;;;;;;6278032;22;20026;-94
2023/08/09 07:46:10;;;;;;;2.00;1.75;;;;;;;;;;6302568;22;20025;-91
2023/08/09 07:48:37;;;;;;;2.08;1.88;;;;;;;;;;6303696;22;20460;-91
2023/08/09 07:51:03;;;;;;;3.08;1.70;;;;;;;;;;6276184;22;20015;-91
2023/08/09 07:53:29;;;;;;;3.63;1.95;;;;;;;;;;6303625;22;20015;-92
2023/08/09 07:55:55;;;;;;;3.17;1.60;;;;;;;;;;6276193;22;20042;-93
2023/08/09 07:58:21;;;;;;;2.10;1.35;;;;;;;;;;6276289;22;20015;-92
2023/08/09 08:00:47;;;;;;;2.28;1.70;;;;;;;;;;6276785;22;20011;-92
2023/08/09 08:03:13;;;;;;;2.65;1.92;;;;;;;;;;6275518;22;20090;-92
2023/08/09 08:05:40;;;;;;;3.47;1.77;;;;;;;;;;6276788;22;20049;-93
2023/08/09 08:08:06;;;;;;;3.33;2.08;;;;;;;;;;6303161;22;20069;-93
2023/08/09 08:10:32;;;;;;;2.17;1.85;;;;;;;;;;6304395;22;20012;-92
2023/08/09 08:12:58;;;;;;;2.30;1.70;;;;;;;;;;6275704;22;20070;-92
2023/08/09 08:15:24;;;;;;;3.75;2.05;;;;;;;;;;6303159;22;20015;-93
2023/08/09 08:17:52;;;;;;;2.13;1.50;;;;;;;;;;6275482;22;20022;-96
2023/08/09 08:20:19;;;;;;;3.28;1.52;;;;;;;;;;6277540;22;20007;-94
2023/08/09 08:22:46;;;;;;;1.23;1.00;;;;;;;;;;6275835;22;20121;-92
2023/08/09 08:25:12;;;;;;;2.50;1.73;;;;;;;;;;6276010;22;20069;-93
2023/08/09 08:27:40;;;;;;;2.00;1.80;;;;;;;;;;6304313;22;20058;-93
2023/08/09 08:30:08;;;;;;;2.30;1.80;;;;;;;;;;6276425;22;20069;-93
2023/08/09 08:32:34;;;;;;;2.95;1.70;;;;;;;;;;6276070;22;20022;-92
2023/08/09 08:35:02;;;;;;;3.33;2.00;;;;;;;;;;6274938;22;20019;-92
2023/08/09 08:37:28;;;;;;;2.35;1.35;;;;;;;;;;6302706;22;20019;-92
2023/08/09 08:39:55;;;;;;;2.38;1.58;;;;;;;;;;6303161;22;20011;-92
2023/08/09 08:42:21;;;;;;;1.73;1.38;;;;;;;;;;6303121;22;20047;-92
2023/08/09 08:44:47;;;;;;;1.55;0.73;;;;;;;;;;6276574;22;20017;-93
2023/08/09 08:47:13;;;;;;;1.30;1.20;;;;;;;;;;6302292;22;20086;-91
2023/08/09 08:49:44;;;;;;;1.48;1.02;;;;;;;;;;6303714;22;20038;-92
2023/08/09 08:52:12;;;;;;;2.13;1.23;;;;;;;;;;6302312;22;20015;-92
2023/08/09 08:54:38;;;;;;;1.60;1.00;;;;;;;;;;6303751;22;20086;-92
2023/08/09 08:57:05;;;;;;;1.45;0.50;;;;;;;;;;6303642;22;20015;-95
2023/08/09 08:59:31;;;;;;;1.50;0.73;;;;;;;;;;6275855;22;20090;-92
2023/08/09 09:01:58;;;;;;;1.73;0.70;;;;;;;;;;6302607;22;20071;-92
2023/08/09 09:04:24;;;;;;;2.80;0.82;;;;;;;;;;6303478;22;20355;-91
2023/08/09 09:06:50;;;;;;;0.82;0.75;;;;;;;;;;6303088;22;20008;-91
2023/08/09 09:09:17;;;;;;;0.77;0.70;;;;;;;;;;6275808;22;20428;-93
2023/08/09 09:11:44;;;;;;;1.35;0.60;;;;;;;;;;6276599;22;20451;-93
2023/08/09 09:14:13;;;;;;;2.15;0.70;;;;;;;;;;6302528;22;20022;-91
2023/08/09 09:16:40;;;;;;;2.53;0.60;;;;;;;;;;6304492;22;20046;-94
2023/08/09 09:19:06;;;;;;;1.17;0.90;;;;;;;;;;6275729;22;20011;-94
2023/08/09 09:21:32;;;;;;;1.45;0.80;;;;;;;;;;6275867;22;20023;-91
2023/08/09 09:24:02;;;;;;;1.30;0.60;;;;;;;;;;6302535;22;20018;-93
2023/08/09 09:26:28;;;;;;;2.15;1.10;;;;;;;;;;6275184;22;20110;-92
2023/08/09 09:28:54;;;;;;;1.27;0.70;;;;;;;;;;6276507;22;20077;-92
2023/08/09 09:31:21;;;;;;;1.65;0.73;;;;;;;;;;6305104;22;20019;-92
2023/08/09 09:33:54;;;;;;;1.00;0.80;;;;;;;;;;6278610;22;20012;-94
2023/08/09 09:36:20;;;;;;;1.08;0.63;;;;;;;;;;6277027;22;20008;-92
2023/08/09 09:38:51;;;;;;;3.22;1.15;;;;;;;;;;6305753;22;20426;-93
2023/08/09 09:41:17;;;;;;;1.10;0.70;;;;;;;;;;6304087;22;20015;-91
2023/08/09 09:43:46;;;;;;;1.25;0.70;;;;;;;;;;6278292;22;20021;-92
2023/08/09 09:46:19;;;;;;;1.65;1.55;;;;;;;;;;6305246;22;20011;-93
2023/08/09 09:48:49;;;;;;;2.67;0.75;;;;;;;;;;6306923;22;20020;-90
2023/08/09 09:51:19;;;;;;;0.80;0.70;;;;;;;;;;6305173;22;20050;-92
2023/08/09 09:53:46;;;;;;;0.43;0.43;;;;;;;;;;6305471;22;20019;-92
2023/08/09 09:56:13;;;;;;;1.77;0.82;;;;;;;;;;6303787;22;20015;-90
2023/08/09 09:58:39;;;;;;;1.67;0.80;;;;;;;;;;6305405;22;20015;-93
2023/08/09 10:01:08;;;;;;;1.60;0.85;;;;;;;;;;6305086;22;20011;-93
2023/08/09 10:03:38;;;;;;;2.63;1.15;;;;;;;;;;6305031;22;20371;-90
2023/08/09 10:06:07;;;;;;;2.08;0.77;;;;;;;;;;6306694;22;20427;-92
2023/08/09 10:08:33;;;;;;;1.60;0.98;;;;;;;;;;6306293;22;20026;-92
2023/08/09 10:11:02;;;;;;;0.95;0.65;;;;;;;;;;6304959;22;20026;-93
2023/08/09 10:13:29;;;;;;;1.80;0.63;;;;;;;;;;6306011;22;20019;-93
2023/08/09 10:15:58;;;;;;;0.85;0.55;;;;;;;;;;6304211;22;20046;-91
2023/08/09 10:18:28;;;;;;;1.17;0.70;;;;;;;;;;6303956;22;20019;-91
2023/08/09 10:20:55;;;;;;;1.15;0.60;;;;;;;;;;6304955;22;20018;-92
2023/08/09 10:23:25;;;;;;;0.57;0.57;;;;;;;;;;6277414;22;20027;-93
2023/08/09 10:25:52;;;;;;;1.05;0.93;;;;;;;;;;6277420;22;20023;-93
2023/08/09 10:28:18;;;;;;;2.13;0.75;;;;;;;;;;6305568;22;20011;-94
2023/08/09 10:30:44;;;;;;;2.13;0.80;;;;;;;;;;6282595;22;20015;-92
2023/08/09 10:33:10;;;;;;;1.15;0.70;;;;;;;;;;6303476;22;20073;-93
2023/08/09 10:35:47;;;;;;;1.30;0.60;;;;;;;;;;6305108;22;20011;-90
2023/08/09 10:38:14;;;;;;;2.20;0.70;;;;;;;;;;6304163;22;20370;-94
2023/08/09 10:40:43;;;;;;;0.60;0.60;;;;;;;;;;6304775;22;20015;-91
2023/08/09 10:43:20;;;;;;;1.38;0.68;;;;;;;;;;6304290;22;20019;-89
2023/08/09 10:45:47;;;;;;;1.33;0.75;;;;;;;;;;6278333;22;20082;-89
2023/08/09 10:48:21;;;;;;;2.75;0.80;;;;;;;;;;6303629;22;20360;-94
2023/08/09 10:50:47;;;;;;;0.85;0.50;;;;;;;;;;6305811;22;20336;-92
2023/08/09 10:53:19;;;;;;;2.83;0.70;;;;;;;;;;6303931;22;20007;-92
2023/08/09 10:55:45;;;;;;;0.80;0.60;;;;;;;;;;6305120;22;20340;-91
2023/08/09 10:58:14;;;;;;;0.80;0.70;;;;;;;;;;6275991;22;20452;-94
2023/08/09 11:00:42;;;;;;;0.70;0.63;;;;;;;;;;6305065;22;20012;-93
2023/08/09 11:03:08;;;;;;;1.08;0.68;;;;;;;;;;6303836;22;20019;-93
2023/08/09 11:05:34;;;;;;;1.67;0.80;;;;;;;;;;6306501;22;20008;-92
2023/08/09 11:08:09;;;;;;;0.50;0.47;;;;;;;;;;6304743;22;20073;-93
2023/08/09 11:10:36;;;;;;;1.00;0.50;;;;;;;;;;6277964;22;20065;-91
2023/08/09 11:13:22;;;;;;;1.33;0.70;;;;;;;;;;6276757;22;20020;-94
2023/08/09 11:15:50;;;;;;;2.10;0.93;;;;;;;;;;6304860;22;20011;-94
2023/08/09 11:18:16;;;;;;;0.77;0.77;;;;;;;;;;6277153;22;20322;-95
2023/08/09 11:20:44;;;;;;;1.83;0.95;;;;;;;;;;6278185;22;20043;-93
2023/08/09 11:23:11;;;;;;;1.17;0.77;;;;;;;;;;6250820;22;20018;-93
2023/08/09 11:25:38;;;;;;;1.15;0.80;;;;;;;;;;6304789;22;20078;-92
2023/08/09 11:28:05;;;;;;;2.85;0.70;;;;;;;;;;6276782;22;20065;-93
2023/08/09 11:30:32;;;;;;;4.72;0.90;;;;;;;;;;6276553;22;20313;-94
2023/08/09 11:33:03;;;;;;;1.80;0.80;;;;;;;;;;6277363;22;20019;-92
2023/08/09 11:35:42;;;;;;;3.20;0.95;;;;;;;;;;6305231;22;20015;-95
2023/08/09 11:38:09;;;;;;;2.55;0.75;;;;;;;;;;6305819;22;20448;-94
2023/08/09 11:40:43;;;;;;;2.45;0.77;;;;;;;;;;6304726;22;20317;-93
2023/08/09 11:43:14;;;;;;;1.67;1.05;;;;;;;;;;6276805;22;20027;-90
2023/08/09 11:45:48;;;;;;;1.20;0.82;;;;;;;;;;6303966;22;20057;-89
2023/08/09 11:48:31;;;;;;;1.60;0.77;;;;;;;;;;6303581;22;20470;-92
2023/08/09 11:51:12;;;;;;;2.10;0.77;;;;;;;;;;6276117;22;20405;-92
2023/08/09 11:53:39;;;;;;;1.75;0.70;;;;;;;;;;6304600;22;20026;-92
2023/08/09 11:56:07;;;;;;;1.73;0.90;;;;;;;;;;6304910;22;20015;-95
2023/08/09 11:58:36;;;;;;;2.25;0.88;;;;;;;;;;6276991;22;20051;-90
2023/08/09 12:01:13;;;;;;;7.97;1.27;;;;;;;;;;6303222;22;20030;-91
2023/08/09 12:03:40;;;;;;;1.55;0.82;;;;;;;;;;6304927;22;20008;-91
2023/08/09 12:06:06;;;;;;;1.45;0.60;;;;;;;;;;6278568;22;20015;-94
2023/08/09 12:08:36;;;;;;;1.45;0.85;;;;;;;;;;6309056;22;20021;-93
2023/08/09 12:11:02;;;;;;;1.85;0.70;;;;;;;;;;6307203;22;20022;-94
2023/08/09 12:13:28;;;;;;;1.15;0.60;;;;;;;;;;6255396;22;20097;-93
2023/08/09 12:15:54;;;;;;;1.30;0.85;;;;;;;;;;6304354;22;20021;-90
2023/08/09 12:18:20;;;;;;;1.70;0.93;;;;;;;;;;6305215;22;20320;-93
2023/08/09 12:20:46;;;;;;;0.60;0.50;;;;;;;;;;6305663;22;20011;-93
2023/08/09 12:23:12;;;;;;;0.73;0.70;;;;;;;;;;6305525;22;20379;-92
2023/08/09 12:25:38;;;;;;;0.85;0.65;;;;;;;;;;6304553;22;20332;-94
2023/08/09 12:28:04;;;;;;;2.05;0.85;;;;;;;;;;6304086;22;20038;-93
2023/08/09 12:30:30;;;;;;;0.90;0.80;;;;;;;;;;6276671;22;20149;-95
2023/08/09 12:32:56;;;;;;;1.42;0.75;;;;;;;;;;6276964;22;20019;-93
2023/08/09 12:35:23;;;;;;;3.08;0.77;;;;;;;;;;6304911;22;20070;-94
2023/08/09 12:37:49;;;;;;;1.20;0.80;;;;;;;;;;6277323;22;20099;-93
2023/08/09 12:40:16;;;;;;;2.13;0.73;;;;;;;;;;6303552;22;20030;-94
2023/08/09 12:42:42;;;;;;;0.80;0.60;;;;;;;;;;6305002;22;20444;-95
2023/08/09 12:45:11;;;;;;;2.72;1.08;;;;;;;;;;6275675;22;20086;-91
2023/08/09 12:47:37;;;;;;;1.05;0.95;;;;;;;;;;6303977;22;20011;-92
2023/08/09 12:50:03;;;;;;;1.63;1.00;;;;;;;;;;6303819;22;20074;-92
2023/08/09 12:52:30;;;;;;;1.48;1.00;;;;;;;;;;6303860;22;20022;-93
2023/08/09 12:54:57;;;;;;;1.88;1.00;;;;;;;;;;6304260;22;20011;-93
2023/08/09 12:57:23;;;;;;;1.02;0.70;;;;;;;;;;6303576;22;20030;-93
2023/08/09 12:59:49;;;;;;;1.00;0.90;;;;;;;;;;6304040;22;20043;-93
2023/08/09 13:02:15;;;;;;;1.48;1.00;;;;;;;;;;6303501;22;20455;-91
2023/08/09 13:04:41;;;;;;;2.38;0.98;;;;;;;;;;6305276;22;20336;-90
2023/08/09 13:07:08;;;;;;;2.00;0.88;;;;;;;;;;6279276;22;20026;-90
2023/08/09 13:09:36;;;;;;;2.67;1.33;;;;;;;;;;6306679;22;20065;-88
2023/08/09 13:12:05;;;;;;;1.35;1.10;;;;;;;;;;6276683;22;20011;-91
2023/08/09 13:14:31;;;;;;;2.67;1.00;;;;;;;;;;6306288;22;20015;-94
2023/08/09 13:16:57;;;;;;;2.88;1.05;;;;;;;;;;6305467;22;20038;-92
2023/08/09 13:19:23;;;;;;;1.80;1.20;;;;;;;;;;6277708;22;20007;-95
2023/08/09 13:21:49;;;;;;;1.42;0.90;;;;;;;;;;6306385;22;20012;-93
2023/08/09 13:24:15;;;;;;;2.00;0.90;;;;;;;;;;6306566;22;20336;-93
2023/08/09 13:26:41;;;;;;;1.40;0.80;;;;;;;;;;6280225;22;20011;-89
2023/08/09 13:29:07;;;;;;;4.22;1.08;;;;;;;;;;6277588;22;20021;-93
2023/08/09 13:31:33;;;;;;;3.33;0.88;;;;;;;;;;6306861;22;20427;-95
2023/08/09 13:33:59;;;;;;;0.80;0.70;;;;;;;;;;6305207;22;20011;-91
2023/08/09 13:36:25;;;;;;;1.27;0.63;;;;;;;;;;6304329;22;20335;-93
2023/08/09 13:38:51;;;;;;;3.40;1.00;;;;;;;;;;6305475;22;20015;-94
2023/08/09 13:41:18;;;;;;;1.70;0.90;;;;;;;;;;6303687;22;20022;-91
2023/08/09 13:43:44;;;;;;;1.23;0.95;;;;;;;;;;6305833;22;20007;-94
2023/08/09 13:46:10;;;;;;;1.75;0.93;;;;;;;;;;6277182;22;20039;-90
2023/08/09 13:48:36;;;;;;;0.93;0.73;;;;;;;;;;6304919;22;20137;-94
2023/08/09 13:51:03;;;;;;;1.30;0.80;;;;;;;;;;6304596;22;20309;-91
2023/08/09 13:53:29;;;;;;;2.67;0.73;;;;;;;;;;6304752;22;20015;-92
2023/08/09 13:55:55;;;;;;;1.80;0.80;;;;;;;;;;6303623;22;20015;-92
2023/08/09 13:58:21;;;;;;;2.42;0.90;;;;;;;;;;6304430;22;20051;-89
2023/08/09 14:00:47;;;;;;;1.80;0.90;;;;;;;;;;6305131;22;20018;-91
2023/08/09 14:03:13;;;;;;;1.00;0.90;;;;;;;;;;6276071;22;20022;-90
2023/08/09 14:05:39;;;;;;;0.80;0.70;;;;;;;;;;6304625;22;20012;-95
2023/08/09 14:08:06;;;;;;;1.67;0.93;;;;;;;;;;6304384;22;20015;-93
2023/08/09 14:10:32;;;;;;;1.48;0.77;;;;;;;;;;6303783;22;20015;-92
2023/08/09 14:12:58;;;;;;;2.58;0.93;;;;;;;;;;6304054;22;20053;-91
2023/08/09 14:15:24;;;;;;;3.95;0.90;;;;;;;;;;6276240;22;20019;-92
2023/08/09 14:17:51;;;;;;;1.40;0.70;;;;;;;;;;6304461;22;20023;-92
2023/08/09 14:20:18;;;;;;;1.75;0.98;;;;;;;;;;6304474;22;20018;-90
2023/08/09 14:22:45;;;;;;;2.45;0.80;;;;;;;;;;6304970;22;20011;-90
2023/08/09 14:25:13;;;;;;;1.67;0.80;;;;;;;;;;6275797;22;20015;-93
2023/08/09 14:27:39;;;;;;;1.42;0.80;;;;;;;;;;6305137;22;20086;-93
2023/08/09 14:30:05;;;;;;;0.75;0.65;;;;;;;;;;6303968;22;20046;-94
2023/08/09 14:32:31;;;;;;;5.13;0.90;;;;;;;;;;6304750;22;20039;-93
2023/08/09 14:34:57;;;;;;;0.60;0.60;;;;;;;;;;6302916;22;20011;-88
2023/08/09 14:37:23;;;;;;;2.83;0.77;;;;;;;;;;6303986;22;20019;-86
2023/08/09 14:39:49;;;;;;;2.67;0.82;;;;;;;;;;6303413;22;20011;-88
2023/08/09 14:42:15;;;;;;;1.35;0.75;;;;;;;;;;6275479;22;20344;-85